createdAt,value
2022-11-24T10:52:03.577Z,76.52
2022-11-24T10:57:07.561Z,76.07
2022-11-24T11:02:30.576Z,76.74
2022-11-24T11:07:34.265Z,76.09
2022-11-24T11:12:44.892Z,76.91
2022-11-24T11:17:50.852Z,76.61
2022-11-24T11:22:56.660Z,76.30
2022-11-24T11:28:24.322Z,76.79
2022-11-24T11:39:00.293Z,75.92
2022-11-24T11:44:26.447Z,76.05
2022-11-24T11:49:29.783Z,76.74
2022-11-24T11:55:12.300Z,76.76
2022-11-24T12:00:24.823Z,76.55
2022-11-24T12:06:16.205Z,76.59
2022-11-24T12:11:34.505Z,77.51
2022-11-24T12:16:59.771Z,77.46
2022-11-24T12:22:02.884Z,77.43
2022-11-24T12:27:27.867Z,77.22
2022-11-24T12:33:05.651Z,77.31
2022-11-24T12:38:24.293Z,77.62
2022-11-24T12:43:32.964Z,77.27
2022-11-24T12:49:17.810Z,77.15
2022-11-24T12:54:22.090Z,77.26
2022-11-24T12:59:34.258Z,76.99
2022-11-24T13:04:54.315Z,76.51
2022-11-24T13:10:46.927Z,76.42
2022-11-24T13:16:07.101Z,77.05
2022-11-24T13:21:36.314Z,76.88
2022-11-24T13:26:42.686Z,77.47
2022-11-24T13:31:46.388Z,77.46
2022-11-24T13:36:54.089Z,76.83
2022-11-24T13:41:57.241Z,77.00
2022-11-24T13:47:24.583Z,77.11
2022-11-24T13:52:40.400Z,76.96
2022-11-24T13:57:50.923Z,77.14
2022-11-24T14:03:19.224Z,77.16
2022-11-24T14:08:27.012Z,77.57
2022-11-24T14:13:34.791Z,77.90
2022-11-24T14:18:40.405Z,78.11
2022-11-24T14:23:45.867Z,78.39
2022-11-24T14:28:50.299Z,78.64
2022-11-24T14:34:14.370Z,78.69
2022-11-24T14:39:23.366Z,79.03
2022-11-24T14:44:31.453Z,79.24
2022-11-24T14:49:39.993Z,79.38
2022-11-24T14:55:03.950Z,79.39
2022-11-24T15:00:31.412Z,79.33
2022-11-24T15:05:53.997Z,79.19
2022-11-24T15:11:00.549Z,79.14
2022-11-24T15:16:16.094Z,79.14
2022-11-24T15:21:31.393Z,79.23
2022-11-24T15:26:40.209Z,79.11
2022-11-24T15:31:52.575Z,78.81
2022-11-24T15:36:56.592Z,78.47
2022-11-24T15:42:00.180Z,78.30
2022-11-24T15:47:04.304Z,78.47
2022-11-24T15:52:07.521Z,78.41
2022-11-24T15:57:11.218Z,78.53
2022-11-24T16:02:14.481Z,78.69
2022-11-24T16:07:18.522Z,78.75
2022-11-24T16:12:21.938Z,78.60
2022-11-24T16:17:25.418Z,78.99
2022-11-24T16:22:28.597Z,79.33
2022-11-24T16:27:32.971Z,79.53
2022-11-24T16:32:36.681Z,79.69
2022-11-24T16:37:40.031Z,79.95
2022-11-24T16:42:43.245Z,79.85
2022-11-24T16:47:46.946Z,79.83
2022-11-24T16:52:50.252Z,79.92
2022-11-24T16:57:53.419Z,80.08
2022-11-24T17:02:56.803Z,79.92
2022-11-24T17:08:00.269Z,79.88
2022-11-24T17:13:03.618Z,79.94
2022-11-24T17:18:24.119Z,79.93
2022-11-24T17:23:29.096Z,79.73
2022-11-24T17:28:32.361Z,79.61
2022-11-24T17:33:36.223Z,79.63
2022-11-24T17:38:39.461Z,79.66
2022-11-24T17:43:42.761Z,79.71
2022-11-24T17:48:47.695Z,79.70
2022-11-24T17:53:53.044Z,79.53
2022-11-24T17:58:58.912Z,79.24
2022-11-24T18:04:03.961Z,79.36
2022-11-24T18:09:07.709Z,79.37
2022-11-24T18:14:11.007Z,79.47
2022-11-24T18:19:14.267Z,79.50
2022-11-24T18:24:23.773Z,79.61
2022-11-24T18:29:27.661Z,79.62
2022-11-24T18:34:30.888Z,79.82
2022-11-24T18:39:34.170Z,79.59
2022-11-24T18:44:37.568Z,79.40
2022-11-24T18:49:40.946Z,79.36
2022-11-24T18:54:44.326Z,79.38
2022-11-24T18:59:47.537Z,79.55
2022-11-24T19:04:50.801Z,79.84
2022-11-24T19:09:54.169Z,80.03
2022-11-24T19:14:57.379Z,80.19
2022-11-24T19:20:00.563Z,79.95
2022-11-24T19:25:04.070Z,79.99
2022-11-24T19:30:07.983Z,80.03
2022-11-24T19:35:11.458Z,79.84
2022-11-24T19:40:15.122Z,79.43
2022-11-24T19:45:18.496Z,79.50
2022-11-24T19:50:21.728Z,79.74
2022-11-24T19:55:25.429Z,79.77
2022-11-24T20:00:31.969Z,79.66
2022-11-24T20:05:35.426Z,79.67
2022-11-24T20:10:42.720Z,79.51
2022-11-24T20:15:45.967Z,79.13
2022-11-24T20:20:49.501Z,79.14
2022-11-24T20:25:52.769Z,79.21
2022-11-24T20:30:55.934Z,79.14
2022-11-24T20:36:06.869Z,79.25
2022-11-24T20:41:22.481Z,79.10
2022-11-24T20:46:29.061Z,79.14
2022-11-24T20:51:35.393Z,79.20
2022-11-24T20:56:41.198Z,79.21
2022-11-24T21:01:46.298Z,78.94
2022-11-24T21:06:50.315Z,78.94
2022-11-24T21:11:55.156Z,79.11
2022-11-24T21:16:58.431Z,79.12
2022-11-24T21:22:01.682Z,78.87
2022-11-24T21:27:04.872Z,78.99
2022-11-24T21:32:08.233Z,79.32
2022-11-24T21:37:11.483Z,79.57
2022-11-24T21:42:14.705Z,79.70
2022-11-24T21:47:17.868Z,79.67
2022-11-24T21:52:21.736Z,79.71
2022-11-24T21:57:25.147Z,79.61
2022-11-24T22:02:28.327Z,79.56
2022-11-24T22:07:32.817Z,79.65
2022-11-24T22:12:36.030Z,79.54
2022-11-24T22:17:39.220Z,79.41
2022-11-24T22:22:42.448Z,79.33
2022-11-24T22:27:45.700Z,78.98
2022-11-24T22:32:48.852Z,78.77
2022-11-24T22:37:52.094Z,78.86
2022-11-24T22:42:55.271Z,78.90
2022-11-24T22:47:58.508Z,78.76
2022-11-24T22:53:01.714Z,78.52
2022-11-24T22:58:04.863Z,78.72
2022-11-24T23:03:08.145Z,78.80
2022-11-24T23:08:11.662Z,78.67
2022-11-24T23:13:14.916Z,78.70
2022-11-24T23:18:18.484Z,78.86
2022-11-24T23:23:21.801Z,78.97
2022-11-24T23:28:25.034Z,79.04
2022-11-24T23:33:28.304Z,79.10
2022-11-24T23:38:34.795Z,79.11
2022-11-24T23:43:40.294Z,79.03
2022-11-24T23:48:44.789Z,78.90
2022-11-24T23:53:49.035Z,79.08
2022-11-24T23:58:52.527Z,78.92
